< < Back
Terminal Aerodrome Forecast


Current Version              Previous Versions:   1  2  3  4  5  6  7  8  9  

Terminal Aerodrome Forecast

033
FTUS44 KMRX 221406 AAA
TAFCHA
TAF AMD
KCHA 221406Z 2214/2312 04010G18KT P6SM FEW070
     FM230000 02005KT P6SM SKC=

Latest METAR

635
SAUS80 KWBC 221800 CCA
MTRCHA
METAR KCHA 221753Z 04011G18KT 10SM SCT055 23/09 A3014 RMK AO2 SLP200
T02330089 10233 20161 50000


USA.gov is the U.S. government's official web portal to all federal, state and local government web resources and services.